x

Port Orford - 15 Nm West Of Port Orford, Or (46015) Wave Buoy

2:50pm - Sat 19th Apr 2014 All times are PDT. -7 hours from GMT.

  • Sig Wave height 6.2ft
  • Swell Direction
  • Peak Period 6s
  • Average Period 6s
  • Wind
    9mph, 11mph gusts
  • Sea Temp 52°f
  • Air Temp 54°f
  • Sea Pressure 1021.3mb
  • Port Orford - 15 Nm West Of Port Orford, Or
  • Port Orford - 15 Nm West Of Port Orford, Or

More Historic Weather Station data

Upgrade to MSW Pro to gain access to the past 30 days of data for over 8000 Wavebouys and Weather Stations around the globe.

Join Pro

Comparision Forecast

View Surf forecast
   
Sat 04/19 2:50pm 6ft 6s 6s 9 11 mph 1021.3mb 52f 54f
1:50pm 7ft 6s 6s 16 18 mph 1020.4mb 52f 52f
12:50pm 7.5ft 6s 6s 16 20 mph 1019.1mb 52f 51f
11:50am 7ft 7s 6s 18 25 mph 1018.2mb 52f 51f
10:50am 9ft 6s 6s 22 27 mph 1016.4mb 52f 51f
9:50am 8ft 6s 6s 25 29 mph 1015.1mb 52f 50f
8:50am 7.5ft 6s 6s 27 36 mph 1013.6mb 52f 50f
7:50am 7.5ft 14s 6s 29 34 mph 1012.6mb 52f 50f
6:50am 6.5ft 9s 6s 25 29 mph 1012.3mb 52f 50f
5:50am 6.5ft 9s 6s 25 31 mph 1012.3mb 52f 50f
4:50am 6.5ft 9s 7s 22 27 mph 1012.5mb 52f 51f
3:50am 6ft 13s 7s 18 22 mph 1012.7mb 52f 51f
2:50am 7ft 10s 8s 16 20 mph 1012.7mb 52f 50f
1:50am 6ft 9s 8s 13 16 mph 1012.8mb 52f 50f
12:50am 6ft 10s 8s 13 16 mph 1013.5mb 52f 51f
Fri 04/18 11:50pm 6ft 11s 8s 9 11 mph 1013mb 52f 51f
10:50pm 6.5ft 11s 8s 7 9 mph 1013.3mb 52f 51f
9:50pm 6.5ft 11s 7s 2 4 mph 1013.4mb 52f 51f
8:50pm 6.5ft 11s 7s 4 7 mph 1014.1mb 52f 51f
7:50pm 7ft 11s 7s 7
mph
1014mb 52f 51f
6:50pm 7ft 11s 7s 9
mph
1014.3mb 52f 51f
5:50pm 7.5ft 11s 7s 11
mph
1014.7mb 52f 52f
4:50pm 7.5ft 11s 6s 13 16 mph 1015.1mb 52f 51f
3:50pm 8ft 10s 7s 20 22 mph 1016mb 52f 51f
2:50pm 8ft 11s 7s 16 20 mph 1016mb 52f 51f
1:50pm 8.5ft 11s 7s 18 22 mph 1016.4mb 52f 51f
12:50pm 7.5ft 11s 6s 20 25 mph 1017.1mb 52f 50f
11:50am 7ft 10s 6s 22 27 mph 1017.6mb 52f 50f
10:50am 8ft 10s 7s 22 27 mph 1017.4mb 52f 50f
9:50am 7ft 10s 6s 22 27 mph 1017.3mb 51f 50f
8:50am 7.5ft 10s 7s 22 25 mph 1017.9mb 51f 49f
7:50am 8ft 11s 7s 22 25 mph 1018.1mb 52f 50f
6:50am 8ft 11s 6s 22 27 mph 1017.9mb 52f 50f
5:50am 7ft 11s 7s 20 25 mph 1018.2mb 52f 50f
4:50am 7.5ft 12s 7s 22 25 mph 1018.2mb 52f 50f
3:50am 7ft 11s 7s 18 20 mph 1018.2mb 52f 50f
2:50am 7ft 11s 7s 20 22 mph 1018.1mb 52f 51f
1:50am 7.5ft 12s 7s 18 20 mph 1018.3mb 52f 51f
12:50am 7ft 12s 7s 16 20 mph 1018.5mb 52f 51f
Thu 04/17 11:50pm 7ft 11s 6s 16 18 mph 1017.9mb 52f 51f
10:50pm 6.5ft 12s 7s 16 18 mph 1018mb 52f 51f
9:50pm 7ft 11s 7s 16 18 mph 1018mb 52f 52f
8:50pm 7ft 12s 7s 16 20 mph 1017.7mb 52f 52f
7:50pm 6ft 11s 7s 16 18 mph 1017.1mb 52f 51f
6:50pm 7.5ft 11s 7s 11 18 mph 1016.5mb 53f 51f
5:50pm 7ft 10s 7s 16 18 mph 1015.8mb 53f 51f
4:50pm 7.5ft 11s 8s 18 20 mph 1015.5mb 53f 51f
3:50pm 7ft 11s 8s 16 20 mph 1015.5mb 53f 51f
2:50pm 7ft 11s 8s 16 18 mph 1015.6mb 53f 52f
1:50pm 7.5ft 11s 9s 13 16 mph 1015.6mb 53f 52f
12:50pm 7ft 12s 9s 13 16 mph 1015.2mb 53f 52f
11:50am 7ft 12s 8s 11 13 mph 1015.5mb 53f 52f
10:50am 7ft 11s 8s 9 11 mph 1015.3mb 53f 52f
9:50am 7.5ft 12s 9s 9 13 mph 1014.6mb 53f 52f
8:50am 7.5ft 11s 8s 4 7 mph 1014.9mb 53f 52f
7:50am 7ft 12s 8s 4 7 mph 1014.9mb 53f 52f
6:50am 9ft 12s 9s  -  2 mph 1014.2mb 53f 52f
4:50am 8ft 11s 9s 7 9 mph 1014.3mb 53f 51f
3:50am 8ft 11s 8s 11 13 mph 1014.6mb 53f 51f
2:50am 8ft 11s 9s 7 9 mph 1014.9mb 53f 51f
1:50am 8ft 11s 9s 9 11 mph 1015.9mb 53f 51f
12:50am 7ft 13s 9s 7 9 mph 1016mb 53f 51f
Wed 04/16 11:50pm 8ft 12s 9s 7 9 mph 1016.5mb 53f 51f
10:50pm 7ft 11s 9s 11 13 mph 1017.3mb 52f 51f
9:50pm 7ft 12s 9s 9 13 mph 1017.7mb 53f 52f
8:50pm 6ft 13s 8s 9 13 mph 1017.9mb 53f 52f
7:50pm 6.5ft 11s 8s 11 13 mph 1018mb 53f 53f
6:50pm 6ft 11s 8s 11 13 mph 1018.5mb 53f 53f
5:50pm 6ft 11s 8s 11 13 mph 1018.8mb 53f 53f
4:50pm 5ft 10s 7s 11 13 mph 1018.9mb 53f 53f
3:50pm 5ft 11s 8s 13
mph
1019.3mb 53f 53f
2:50pm 6ft 12s 8s 9 11 mph 1019.7mb 53f 52f
1:50pm 6ft 11s 8s 11 13 mph 1020.2mb 53f 52f
12:50pm 6ft 10s 8s 9
mph
1020.8mb 53f 51f
11:50am 6.5ft 11s 8s 7 9 mph 1021mb 52f 51f
10:50am 6ft 10s 8s 7 9 mph 1021mb 52f 51f
9:50am 6ft 10s 8s 7 9 mph 1021mb 52f 51f
8:50am 6ft 12s 7s 9
mph
1021.4mb 51f 51f
7:50am 6ft 12s 8s 9 11 mph 1021.5mb 51f 51f
6:50am 6ft 11s 8s 11 13 mph 1021.4mb 51f 50f
5:50am 6ft 11s 8s 9 11 mph 1021.5mb 51f 50f
4:50am 5.5ft 10s 7s 11
mph
1021.5mb 51f 50f
3:50am 7ft 12s 8s 11
mph
1021.8mb 51f 50f
2:50am 6ft 11s 7s 13 16 mph 1021.9mb 51f 49f
1:50am 6ft 11s 7s 11 13 mph 1022.5mb 51f 50f
12:50am 7ft 10s 6s 16 20 mph 1022.3mb 51f 51f
Tue 04/15 11:50pm 6.5ft 12s 6s 16 18 mph 1022.4mb 51f 51f